Time;durP1;ratioP1;P1;durP2;ratioP2;P2;SDS_P1;SDS_P2;PMS_P1;PMS_P2;Temp;Humidity;BMP_temperature;BMP_pressure;BME280_temperature;BME280_humidity;BME280_pressure;Samples;Min_cycle;Max_cycle;Signal;HPM_P1;HPM_P2
2022/08/16 00:02:22;;;;;;;11.52;5.00;;;23.40;89.90;;;;;;4976847;28;20212;-76
2022/08/16 00:04:51;;;;;;;10.85;5.28;;;23.40;89.90;;;;;;4981325;28;20285;-75
2022/08/16 00:07:21;;;;;;;9.65;5.57;;;23.40;89.90;;;;;;4975092;28;20447;-76
2022/08/16 00:09:50;;;;;;;8.95;5.45;;;23.40;90.00;;;;;;4977634;28;20201;-75
2022/08/16 00:12:19;;;;;;;13.15;5.47;;;23.40;90.00;;;;;;4981603;28;20302;-74
2022/08/16 00:14:47;;;;;;;7.45;4.47;;;23.40;90.00;;;;;;4978878;28;20189;-75
2022/08/16 00:17:16;;;;;;;10.13;5.38;;;23.30;90.00;;;;;;4978946;28;20643;-76
2022/08/16 00:19:47;;;;;;;9.63;4.82;;;23.30;90.10;;;;;;4978961;28;20277;-76
2022/08/16 00:22:22;;;;;;;8.95;4.85;;;23.30;90.10;;;;;;4974896;28;20884;-75
2022/08/16 00:24:52;;;;;;;9.50;5.15;;;23.30;90.20;;;;;;4981199;28;20718;-77
2022/08/16 00:27:21;;;;;;;8.15;4.53;;;23.30;90.20;;;;;;4979088;28;20900;-76
2022/08/16 00:29:51;;;;;;;11.40;4.95;;;23.30;90.20;;;;;;4976351;28;20193;-77
2022/08/16 00:32:37;;;;;;;11.48;5.30;;;23.30;90.20;;;;;;4972191;28;20240;-77
2022/08/16 00:35:07;;;;;;;8.65;4.88;;;23.20;90.10;;;;;;4968872;28;20913;-77
2022/08/16 00:37:45;;;;;;;7.85;4.70;;;23.20;90.20;;;;;;4975551;28;20193;-76
2022/08/16 00:40:31;;;;;;;9.50;5.07;;;23.20;90.20;;;;;;4982235;28;20192;-76
2022/08/16 00:43:06;;;;;;;8.65;5.07;;;23.20;90.20;;;;;;4979776;28;20224;-77
2022/08/16 00:45:52;;;;;;;10.10;4.65;;;23.20;90.20;;;;;;4979907;28;20280;-78
2022/08/16 00:48:28;;;;;;;16.15;5.75;;;23.20;90.20;;;;;;4974513;28;20202;-77
2022/08/16 00:50:59;;;;;;;14.55;5.35;;;23.20;90.20;;;;;;4977286;28;20203;-76
2022/08/16 00:53:30;;;;;;;9.63;4.85;;;23.20;90.20;;;;;;4981725;28;20284;-76
2022/08/16 00:56:04;;;;;;;9.27;5.13;;;23.20;90.40;;;;;;4979947;28;20201;-76
2022/08/16 00:58:36;;;;;;;9.55;4.80;;;23.20;90.40;;;;;;4981829;28;20185;-75
2022/08/16 01:01:06;;;;;;;6.60;4.20;;;23.20;90.50;;;;;;4974719;28;20193;-77
2022/08/16 01:03:37;;;;;;;8.85;5.15;;;23.20;90.60;;;;;;4972936;28;20193;-76
2022/08/16 01:06:12;;;;;;;8.45;4.97;;;23.10;90.60;;;;;;4975760;28;20827;-76
2022/08/16 01:09:05;;;;;;;12.82;4.85;;;23.10;90.60;;;;;;4979206;28;20198;-76
2022/08/16 01:11:38;;;;;;;11.57;5.45;;;23.10;90.60;;;;;;4977156;28;20359;-76
2022/08/16 01:14:27;;;;;;;13.45;5.85;;;23.20;90.70;;;;;;4982978;28;20836;-76
2022/08/16 01:16:59;;;;;;;11.20;5.20;;;23.20;90.60;;;;;;4973076;28;20192;-77
2022/08/16 01:19:31;;;;;;;12.63;5.50;;;23.20;90.70;;;;;;4968479;28;20875;-76
2022/08/16 01:22:02;;;;;;;10.30;5.50;;;23.20;90.70;;;;;;4975636;28;20260;-76
2022/08/16 01:24:56;;;;;;;9.35;4.75;;;23.20;90.70;;;;;;4977905;28;20208;-77
2022/08/16 01:27:33;;;;;;;11.18;5.65;;;23.20;90.80;;;;;;4972707;28;20193;-77
2022/08/16 01:30:10;;;;;;;9.48;5.10;;;23.20;90.80;;;;;;4973241;28;20236;-77
2022/08/16 01:32:49;;;;;;;11.13;5.07;;;23.20;90.80;;;;;;4969542;28;20264;-77
2022/08/16 01:35:34;;;;;;;12.40;5.43;;;23.20;90.80;;;;;;4975927;28;20224;-76
2022/08/16 01:38:18;;;;;;;11.38;6.05;;;23.20;90.80;;;;;;4974775;28;20193;-77
2022/08/16 01:40:50;;;;;;;9.32;5.38;;;23.20;90.80;;;;;;4971788;28;20182;-77
2022/08/16 01:43:19;;;;;;;8.85;4.72;;;23.20;90.80;;;;;;4974724;28;20197;-76
2022/08/16 01:45:54;;;;;;;9.25;5.13;;;23.20;90.80;;;;;;4981821;28;20769;-77
2022/08/16 01:48:28;;;;;;;7.82;5.05;;;23.20;90.80;;;;;;4981052;28;20220;-77
2022/08/16 01:50:57;;;;;;;8.63;5.15;;;23.20;90.90;;;;;;4978450;28;20186;-76
2022/08/16 01:53:37;;;;;;;6.68;4.28;;;23.20;90.90;;;;;;4977964;28;20266;-76
2022/08/16 01:56:10;;;;;;;9.52;5.20;;;23.20;90.90;;;;;;4971686;28;20293;-76
2022/08/16 01:58:53;;;;;;;7.65;4.57;;;23.30;91.00;;;;;;4978459;28;20967;-77
2022/08/16 02:01:23;;;;;;;12.25;5.43;;;23.20;91.00;;;;;;4974664;28;20189;-78
2022/08/16 02:03:53;;;;;;;7.93;4.85;;;23.30;91.00;;;;;;4977362;28;20728;-77
2022/08/16 02:06:31;;;;;;;8.80;4.68;;;23.30;91.00;;;;;;4976748;28;20227;-78
2022/08/16 02:09:04;;;;;;;11.95;5.32;;;23.20;91.00;;;;;;4977066;28;20281;-76
2022/08/16 02:11:35;;;;;;;8.55;5.03;;;23.30;91.00;;;;;;4976008;28;20284;-77
2022/08/16 02:14:21;;;;;;;8.20;4.88;;;23.30;91.00;;;;;;4972316;28;20272;-76
2022/08/16 02:16:54;;;;;;;12.00;6.20;;;23.20;91.20;;;;;;4971101;28;20275;-77
2022/08/16 02:19:24;;;;;;;7.30;4.97;;;23.20;91.20;;;;;;4974772;28;20198;-77
2022/08/16 02:22:16;;;;;;;9.23;5.13;;;23.20;91.20;;;;;;4973498;28;20613;-76
2022/08/16 02:25:06;;;;;;;9.35;5.90;;;23.20;91.30;;;;;;4971755;28;20201;-76
2022/08/16 02:27:38;;;;;;;15.02;5.93;;;23.20;91.40;;;;;;4971400;28;20615;-77
2022/08/16 02:30:13;;;;;;;11.02;5.50;;;23.20;91.40;;;;;;4974687;28;20200;-78
2022/08/16 02:33:02;;;;;;;9.20;5.35;;;23.20;91.40;;;;;;4973474;28;20840;-77
2022/08/16 02:35:31;;;;;;;10.75;5.53;;;23.20;91.40;;;;;;4973344;28;20189;-76
2022/08/16 02:38:00;;;;;;;10.23;5.60;;;23.20;91.40;;;;;;4974994;28;20193;-76
2022/08/16 02:40:36;;;;;;;13.85;6.32;;;23.20;91.40;;;;;;4978431;28;20350;-76
2022/08/16 02:43:07;;;;;;;11.20;6.25;;;23.30;91.40;;;;;;4969504;28;20193;-77
2022/08/16 02:45:36;;;;;;;9.82;5.20;;;23.20;91.40;;;;;;4970133;28;20925;-78
2022/08/16 02:48:05;;;;;;;10.32;5.35;;;23.20;91.40;;;;;;4971958;28;20204;-77
2022/08/16 02:50:54;;;;;;;12.63;5.45;;;23.30;91.50;;;;;;4977267;28;20248;-77
2022/08/16 02:53:42;;;;;;;9.82;5.95;;;23.30;91.40;;;;;;4974769;28;20228;-76
2022/08/16 02:56:12;;;;;;;12.27;6.35;;;23.30;91.50;;;;;;4967574;28;20197;-77
2022/08/16 02:58:44;;;;;;;9.02;5.15;;;23.30;91.40;;;;;;4978779;28;20203;-76
2022/08/16 03:01:13;;;;;;;12.30;5.60;;;23.30;91.40;;;;;;4973948;28;20231;-77
2022/08/16 03:04:01;;;;;;;10.68;5.50;;;23.30;91.40;;;;;;4976798;28;20266;-77
2022/08/16 03:06:50;;;;;;;12.63;5.90;;;23.30;91.30;;;;;;4975490;28;20201;-76
2022/08/16 03:09:25;;;;;;;11.15;5.68;;;23.30;91.40;;;;;;4977129;28;20882;-75
2022/08/16 03:11:59;;;;;;;9.23;5.18;;;23.30;91.30;;;;;;4976633;28;20647;-75
2022/08/16 03:14:32;;;;;;;14.10;5.90;;;23.30;91.40;;;;;;4974710;28;20575;-75
2022/08/16 03:17:01;;;;;;;12.85;5.88;;;23.20;91.40;;;;;;4974544;28;20567;-77
2022/08/16 03:19:31;;;;;;;12.93;6.07;;;23.20;91.40;;;;;;4975825;28;20197;-76
2022/08/16 03:22:21;;;;;;;10.38;6.20;;;23.20;91.40;;;;;;4978307;28;20193;-76
2022/08/16 03:24:58;;;;;;;9.15;5.65;;;23.20;91.40;;;;;;4981073;28;20250;-76
2022/08/16 03:27:29;;;;;;;12.27;5.57;;;23.20;91.40;;;;;;4975941;28;20751;-75
2022/08/16 03:30:05;;;;;;;13.55;4.97;;;23.20;91.40;;;;;;4976627;28;20617;-76
2022/08/16 03:32:46;;;;;;;10.90;5.80;;;23.20;91.40;;;;;;4979144;28;20229;-76
2022/08/16 03:35:21;;;;;;;13.98;6.15;;;23.20;91.40;;;;;;4983535;28;20745;-76
2022/08/16 03:37:55;;;;;;;10.57;6.22;;;23.20;91.40;;;;;;4976810;28;20201;-76
2022/08/16 03:40:32;;;;;;;11.00;6.07;;;23.20;91.60;;;;;;4974418;28;20259;-76
2022/08/16 03:43:04;;;;;;;10.13;5.80;;;23.20;91.40;;;;;;4976692;28;20296;-76
2022/08/16 03:45:50;;;;;;;10.15;5.60;;;23.20;91.40;;;;;;4981555;28;20237;-76
2022/08/16 03:48:22;;;;;;;9.15;5.40;;;23.20;91.30;;;;;;4978916;28;20501;-76
2022/08/16 03:51:11;;;;;;;12.00;5.65;;;23.20;91.30;;;;;;4975356;28;20198;-77
2022/08/16 03:53:41;;;;;;;14.88;6.22;;;23.20;91.30;;;;;;4978288;28;20213;-77
2022/08/16 03:56:10;;;;;;;9.60;6.10;;;23.20;91.30;;;;;;4981484;28;20194;-75
2022/08/16 03:58:48;;;;;;;13.70;6.00;;;23.20;91.20;;;;;;4977134;28;20224;-76
2022/08/16 04:01:21;;;;;;;13.07;6.07;;;23.20;91.20;;;;;;4973100;28;20891;-76
2022/08/16 04:03:51;;;;;;;9.68;5.47;;;23.20;91.20;;;;;;4975992;28;20936;-75
2022/08/16 04:06:22;;;;;;;12.90;6.55;;;23.20;91.20;;;;;;4978653;28;20212;-76
2022/08/16 04:08:50;;;;;;;11.20;5.80;;;23.20;91.20;;;;;;4978011;28;20197;-76
2022/08/16 04:11:20;;;;;;;15.57;6.35;;;23.20;91.20;;;;;;4977054;28;20197;-74
2022/08/16 04:13:51;;;;;;;11.48;6.55;;;23.30;91.30;;;;;;4975585;28;20229;-74
2022/08/16 04:16:41;;;;;;;16.10;6.88;;;23.30;91.30;;;;;;4976174;28;20193;-75
2022/08/16 04:19:10;;;;;;;10.65;5.70;;;23.30;91.30;;;;;;4985195;28;20193;-74
2022/08/16 04:21:39;;;;;;;10.45;5.80;;;23.30;91.30;;;;;;4975718;28;20257;-74
2022/08/16 04:24:14;;;;;;;8.95;5.40;;;23.30;91.40;;;;;;4978656;28;20224;-73
2022/08/16 04:26:44;;;;;;;13.82;6.57;;;23.30;91.40;;;;;;4980332;28;20189;-74
2022/08/16 04:29:14;;;;;;;11.65;6.13;;;23.30;91.50;;;;;;4983673;28;20279;-74
2022/08/16 04:31:54;;;;;;;12.95;5.97;;;23.30;91.50;;;;;;4974832;28;20222;-75
2022/08/16 04:34:27;;;;;;;11.35;5.60;;;23.30;91.60;;;;;;4976561;28;20248;-74
2022/08/16 04:36:56;;;;;;;9.95;5.35;;;23.30;91.70;;;;;;4980783;28;20190;-74
2022/08/16 04:39:26;;;;;;;8.80;5.82;;;23.40;91.70;;;;;;4978626;28;20236;-74
2022/08/16 04:42:16;;;;;;;11.20;6.05;;;23.40;91.80;;;;;;4978119;28;20197;-74
2022/08/16 04:44:45;;;;;;;8.07;4.55;;;23.40;91.80;;;;;;4981309;28;20190;-73
2022/08/16 04:47:27;;;;;;;11.88;5.50;;;23.40;91.80;;;;;;4982315;28;20196;-74
2022/08/16 04:50:00;;;;;;;9.65;5.60;;;23.40;91.80;;;;;;4975992;28;20207;-75
2022/08/16 04:52:29;;;;;;;12.00;5.47;;;23.50;91.80;;;;;;4980126;28;20284;-73
2022/08/16 04:55:05;;;;;;;8.82;5.13;;;23.50;91.80;;;;;;4987099;28;20220;-75
2022/08/16 04:57:38;;;;;;;12.57;5.28;;;23.50;91.80;;;;;;4978634;28;20201;-74
2022/08/16 05:00:12;;;;;;;12.88;5.10;;;23.50;91.80;;;;;;4984226;28;20201;-74
2022/08/16 05:03:05;;;;;;;9.70;5.32;;;23.60;91.80;;;;;;4975207;28;20779;-73
2022/08/16 05:05:39;;;;;;;12.68;6.25;;;23.60;91.80;;;;;;4980553;28;20188;-73
2022/08/16 05:08:24;;;;;;;11.43;5.28;;;23.60;91.80;;;;;;4975724;28;20220;-73
2022/08/16 05:10:58;;;;;;;11.18;4.93;;;23.70;91.80;;;;;;4968886;28;20200;-74
2022/08/16 05:13:28;;;;;;;11.55;5.90;;;23.70;91.80;;;;;;4979259;28;20201;-74
2022/08/16 05:16:10;;;;;;;9.60;5.13;;;23.80;91.80;;;;;;4977501;28;20225;-73
2022/08/16 05:18:48;;;;;;;8.38;5.25;;;23.80;91.80;;;;;;4980502;28;20223;-74
2022/08/16 05:21:17;;;;;;;12.48;5.15;;;23.80;91.70;;;;;;4985990;28;20197;-74
2022/08/16 05:23:49;;;;;;;9.25;5.63;;;23.90;91.70;;;;;;4973903;28;20205;-73
2022/08/16 05:26:27;;;;;;;10.80;4.80;;;23.90;91.70;;;;;;4969944;28;20685;-74
2022/08/16 05:28:56;;;;;;;10.45;4.90;;;23.90;91.70;;;;;;4984837;28;20197;-75
2022/08/16 05:31:27;;;;;;;11.52;5.38;;;24.00;91.70;;;;;;4972847;28;20190;-74
2022/08/16 05:34:00;;;;;;;13.57;4.93;;;24.00;91.60;;;;;;4980228;28;20933;-74
2022/08/16 05:36:31;;;;;;;9.75;5.13;;;24.10;91.60;;;;;;4979168;28;21899;-73
2022/08/16 05:39:05;;;;;;;8.18;5.05;;;24.10;91.60;;;;;;4980254;28;20193;-75
2022/08/16 05:41:36;;;;;;;8.32;4.70;;;24.10;91.60;;;;;;4972583;28;20279;-78
2022/08/16 05:44:14;;;;;;;13.68;5.65;;;24.20;91.70;;;;;;4984894;28;20193;-75
2022/08/16 05:46:54;;;;;;;11.10;5.40;;;24.20;91.70;;;;;;4978750;28;20193;-74
2022/08/16 05:49:27;;;;;;;10.23;5.05;;;24.20;91.70;;;;;;4979155;28;20244;-74
2022/08/16 05:52:08;;;;;;;7.45;4.57;;;24.30;91.70;;;;;;4978182;28;20619;-74
2022/08/16 05:54:41;;;;;;;12.02;5.60;;;24.30;91.70;;;;;;4974404;28;20275;-74
2022/08/16 05:57:17;;;;;;;10.88;5.05;;;24.30;91.50;;;;;;4976822;28;20197;-77
2022/08/16 05:59:50;;;;;;;9.68;5.22;;;24.40;91.50;;;;;;4973683;28;20214;-74
2022/08/16 06:02:31;;;;;;;9.18;4.65;;;24.40;91.50;;;;;;4981806;28;20290;-75
2022/08/16 06:05:03;;;;;;;9.88;5.53;;;24.50;91.50;;;;;;4978247;28;20608;-75
2022/08/16 06:07:31;;;;;;;12.43;5.05;;;24.60;91.50;;;;;;4977625;28;20193;-76
2022/08/16 06:10:00;;;;;;;8.02;4.78;;;24.60;91.40;;;;;;4978258;28;20898;-75
2022/08/16 06:12:30;;;;;;;14.77;4.78;;;24.70;91.40;;;;;;4979921;28;20208;-76
2022/08/16 06:15:02;;;;;;;10.50;4.95;;;24.80;91.50;;;;;;4978681;28;20757;-76
2022/08/16 06:17:36;;;;;;;8.82;4.40;;;24.80;91.30;;;;;;4983932;28;20924;-78
2022/08/16 06:20:14;;;;;;;9.32;5.32;;;24.90;91.20;;;;;;4982308;28;20192;-77
2022/08/16 06:22:54;;;;;;;9.32;4.80;;;24.90;91.20;;;;;;4974378;28;20193;-76
2022/08/16 06:25:27;;;;;;;8.38;4.88;;;25.00;91.10;;;;;;4984647;28;20197;-76
2022/08/16 06:28:09;;;;;;;11.02;4.95;;;25.00;91.10;;;;;;4983834;28;20228;-76
2022/08/16 06:30:44;;;;;;;10.80;4.88;;;25.10;91.00;;;;;;4982680;28;20729;-77
2022/08/16 06:33:15;;;;;;;8.48;4.90;;;25.20;90.90;;;;;;4978261;28;20217;-76
2022/08/16 06:35:52;;;;;;;10.95;4.68;;;25.30;90.70;;;;;;4982922;28;20220;-76
2022/08/16 06:38:27;;;;;;;7.97;4.80;;;25.30;90.50;;;;;;4978309;28;20865;-76
2022/08/16 06:41:03;;;;;;;9.75;4.80;;;25.40;90.40;;;;;;4979983;28;20284;-76
2022/08/16 06:43:34;;;;;;;12.00;4.90;;;25.50;90.30;;;;;;4980028;28;20720;-75
2022/08/16 06:46:04;;;;;;;8.30;4.50;;;25.60;90.30;;;;;;4983361;28;20201;-74
2022/08/16 06:48:39;;;;;;;10.15;4.60;;;25.60;90.10;;;;;;4983210;28;20336;-75
2022/08/16 06:51:12;;;;;;;9.80;4.57;;;25.70;89.80;;;;;;4984235;28;20686;-76
2022/08/16 06:53:42;;;;;;;8.98;3.97;;;25.80;89.60;;;;;;4980149;28;20189;-76
2022/08/16 06:56:11;;;;;;;10.00;4.43;;;25.90;88.90;;;;;;4983070;28;20233;-76
2022/08/16 06:58:51;;;;;;;12.32;4.57;;;26.00;88.60;;;;;;4981106;28;20211;-75
2022/08/16 07:01:20;;;;;;;9.00;4.63;;;26.00;88.20;;;;;;4983883;28;20197;-77
2022/08/16 07:04:08;;;;;;;7.00;4.28;;;26.10;87.90;;;;;;4973683;28;20204;-75
2022/08/16 07:06:41;;;;;;;8.57;4.25;;;26.10;87.40;;;;;;4978899;28;20196;-75
2022/08/16 07:09:11;;;;;;;8.15;3.92;;;26.20;86.40;;;;;;4974955;28;20845;-75
2022/08/16 07:11:43;;;;;;;8.57;4.40;;;26.20;85.70;;;;;;4979340;28;20247;-76
2022/08/16 07:14:15;;;;;;;6.97;3.78;;;26.30;85.60;;;;;;4983118;28;20463;-75
2022/08/16 07:16:55;;;;;;;7.20;4.20;;;26.40;85.70;;;;;;4979481;28;20278;-76
2022/08/16 07:19:26;;;;;;;8.07;4.68;;;26.40;85.70;;;;;;4977658;28;20193;-77
2022/08/16 07:22:16;;;;;;;9.85;4.28;;;26.50;84.80;;;;;;4977359;28;20198;-76
2022/08/16 07:25:06;;;;;;;7.97;4.40;;;26.50;83.60;;;;;;4979668;28;20683;-76
2022/08/16 07:27:34;;;;;;;8.00;4.47;;;26.60;83.90;;;;;;4975077;28;20189;-76
2022/08/16 07:30:07;;;;;;;7.80;4.25;;;26.60;83.40;;;;;;4977921;28;20197;-77
2022/08/16 07:32:56;;;;;;;8.80;4.55;;;26.70;83.60;;;;;;4981640;28;20252;-76
2022/08/16 07:35:25;;;;;;;7.97;3.97;;;26.80;83.40;;;;;;4983088;28;20228;-78
2022/08/16 07:37:54;;;;;;;5.88;4.03;;;26.80;83.10;;;;;;4974992;28;20197;-74
2022/08/16 07:40:24;;;;;;;6.85;4.15;;;26.90;82.20;;;;;;4973815;28;20204;-76
2022/08/16 07:43:12;;;;;;;8.40;3.65;;;26.90;81.90;;;;;;4974770;28;20212;-75
2022/08/16 07:45:41;;;;;;;10.20;4.22;;;27.10;82.10;;;;;;4984172;28;20853;-76
2022/08/16 07:48:10;;;;;;;14.32;4.90;;;27.10;81.20;;;;;;4981948;28;20200;-74
2022/08/16 07:50:41;;;;;;;7.70;3.97;;;27.20;81.60;;;;;;4983462;28;20197;-74
2022/08/16 07:53:28;;;;;;;9.73;4.43;;;27.20;81.10;;;;;;4982918;28;20296;-75
2022/08/16 07:56:00;;;;;;;12.60;4.95;;;27.20;80.30;;;;;;4975882;28;20213;-73
2022/08/16 07:58:32;;;;;;;8.93;4.30;;;27.30;80.30;;;;;;4982431;28;20279;-74
2022/08/16 08:01:05;;;;;;;7.47;4.57;;;27.40;80.30;;;;;;4985294;28;20200;-76
2022/08/16 08:03:42;;;;;;;7.35;4.55;;;27.40;79.30;;;;;;4984550;28;20220;-75
2022/08/16 08:06:17;;;;;;;10.65;5.13;;;27.40;79.40;;;;;;4985279;28;20535;-74
2022/08/16 08:08:47;;;;;;;9.20;4.63;;;27.50;79.20;;;;;;4978488;28;20193;-76
2022/08/16 08:11:20;;;;;;;7.63;4.85;;;27.60;79.00;;;;;;4982057;28;20194;-74
2022/08/16 08:13:52;;;;;;;8.32;4.82;;;27.60;79.10;;;;;;4982902;28;20200;-75
2022/08/16 08:16:21;;;;;;;7.95;4.50;;;27.60;78.80;;;;;;4986169;28;20224;-77
2022/08/16 08:18:59;;;;;;;9.00;4.72;;;27.70;78.70;;;;;;4985990;28;20284;-76
2022/08/16 08:21:32;;;;;;;12.38;4.93;;;27.70;78.60;;;;;;4980032;28;20725;-75
2022/08/16 08:24:23;;;;;;;10.15;5.05;;;27.80;78.20;;;;;;4975682;28;20709;-74
2022/08/16 08:27:01;;;;;;;8.52;4.65;;;27.80;77.80;;;;;;4985852;28;20668;-75
2022/08/16 08:29:32;;;;;;;7.78;4.50;;;27.80;77.70;;;;;;4981559;28;20263;-77
2022/08/16 08:32:08;;;;;;;11.85;4.45;;;27.90;77.90;;;;;;4984999;28;20935;-78
2022/08/16 08:34:58;;;;;;;6.35;3.90;;;28.00;77.50;;;;;;4985861;28;20729;-75
2022/08/16 08:37:30;;;;;;;6.43;4.10;;;28.00;77.00;;;;;;4973935;28;20209;-75
2022/08/16 08:40:21;;;;;;;9.38;4.78;;;28.00;76.40;;;;;;4977703;28;20506;-76
2022/08/16 08:42:54;;;;;;;8.07;4.40;;;28.10;77.00;;;;;;4978340;28;20196;-74
2022/08/16 08:45:29;;;;;;;8.40;4.15;;;28.20;75.90;;;;;;4984883;28;20210;-75
2022/08/16 08:48:17;;;;;;;6.68;4.25;;;28.20;76.50;;;;;;4978299;28;20217;-74
2022/08/16 08:51:04;;;;;;;6.13;4.15;;;28.30;76.40;;;;;;4983147;28;20189;-74
2022/08/16 08:53:38;;;;;;;6.55;4.57;;;28.40;76.20;;;;;;4983713;28;20208;-76
2022/08/16 08:56:09;;;;;;;7.57;4.45;;;28.40;75.80;;;;;;4984070;28;20213;-74
2022/08/16 08:58:52;;;;;;;8.57;4.85;;;28.50;75.10;;;;;;4982093;28;20197;-74
2022/08/16 09:01:31;;;;;;;7.45;4.53;;;28.60;74.50;;;;;;4983154;28;20200;-75
2022/08/16 09:04:11;;;;;;;7.10;4.13;;;28.60;73.60;;;;;;4984462;28;20197;-75
2022/08/16 09:06:45;;;;;;;6.57;4.20;;;28.70;73.30;;;;;;4978511;28;20200;-75
2022/08/16 09:09:14;;;;;;;9.40;4.30;;;28.70;72.50;;;;;;4976262;28;20288;-76
2022/08/16 09:11:47;;;;;;;8.02;4.70;;;28.80;72.50;;;;;;4975136;28;20194;-78
2022/08/16 09:14:35;;;;;;;10.90;4.40;;;28.90;72.30;;;;;;4982917;28;20284;-76
2022/08/16 09:17:04;;;;;;;7.40;4.63;;;29.00;72.20;;;;;;4974134;28;20222;-76
2022/08/16 09:19:54;;;;;;;6.88;4.30;;;29.10;72.50;;;;;;4976309;28;20201;-77
2022/08/16 09:22:27;;;;;;;6.47;3.72;;;29.10;71.30;;;;;;4979443;28;20207;-76
2022/08/16 09:24:55;;;;;;;7.20;3.90;;;29.20;70.00;;;;;;4986126;28;20228;-76
2022/08/16 09:27:41;;;;;;;7.47;4.03;;;29.30;70.20;;;;;;4984037;28;20190;-76
2022/08/16 09:30:25;;;;;;;8.38;3.92;;;29.30;69.60;;;;;;4980301;28;20194;-75
2022/08/16 09:33:11;;;;;;;7.60;3.92;;;29.40;69.70;;;;;;4978160;28;20235;-74
2022/08/16 09:35:42;;;;;;;7.93;4.22;;;29.50;69.50;;;;;;4982293;28;20185;-76
2022/08/16 09:38:12;;;;;;;6.32;4.18;;;29.50;69.90;;;;;;4983934;28;20197;-76
2022/08/16 09:41:04;;;;;;;8.68;4.00;;;29.60;69.00;;;;;;4976537;28;20196;-75
2022/08/16 09:43:44;;;;;;;8.02;4.20;;;29.70;67.40;;;;;;4985746;28;20205;-75
2022/08/16 09:46:28;;;;;;;8.70;3.85;;;29.70;67.20;;;;;;4982561;28;20197;-76
2022/08/16 09:49:17;;;;;;;7.45;4.40;;;29.80;67.20;;;;;;4976583;28;20193;-74
2022/08/16 09:51:53;;;;;;;8.23;4.70;;;29.90;65.90;;;;;;4979921;28;20635;-73
2022/08/16 09:54:24;;;;;;;7.13;4.30;;;29.90;65.00;;;;;;4984938;28;20592;-75
2022/08/16 09:57:00;;;;;;;9.85;4.00;;;30.00;65.60;;;;;;4983172;28;20217;-75
2022/08/16 09:59:31;;;;;;;8.00;4.22;;;30.10;65.30;;;;;;4983780;28;20193;-75
2022/08/16 10:02:06;;;;;;;6.03;3.80;;;30.20;65.50;;;;;;4979351;28;20807;-74
2022/08/16 10:04:56;;;;;;;5.40;3.50;;;30.30;65.80;;;;;;4975495;28;20193;-76
2022/08/16 10:07:25;;;;;;;11.32;3.80;;;30.30;65.10;;;;;;4980183;28;20193;-74
2022/08/16 10:10:12;;;;;;;6.97;3.72;;;30.40;64.40;;;;;;4981494;28;20648;-74
2022/08/16 10:15:35;;;;;;;6.93;4.03;;;30.60;63.70;;;;;;4981007;28;20197;-74
2022/08/16 10:18:08;;;;;;;6.13;4.10;;;30.70;63.50;;;;;;4980081;28;20217;-74
2022/08/16 10:20:58;;;;;;;6.20;4.25;;;30.70;62.20;;;;;;4981955;28;20204;-74
2022/08/16 10:23:28;;;;;;;5.72;3.65;;;30.70;61.90;;;;;;4977227;28;20200;-75
2022/08/16 10:25:57;;;;;;;7.80;3.88;;;30.80;62.50;;;;;;4981741;28;20227;-73
2022/08/16 10:28:45;;;;;;;5.95;3.85;;;30.90;62.50;;;;;;4980144;28;20201;-74
2022/08/16 10:31:19;;;;;;;6.60;4.47;;;31.00;62.20;;;;;;4977204;28;20283;-75
2022/08/16 10:34:07;;;;;;;6.63;4.00;;;31.10;62.30;;;;;;4990158;28;20200;-74
2022/08/16 10:36:56;;;;;;;6.95;4.25;;;31.10;60.60;;;;;;5002469;28;20259;-74
2022/08/16 10:39:25;;;;;;;7.28;4.00;;;31.10;59.80;;;;;;4993015;28;20226;-73
2022/08/16 10:42:08;;;;;;;6.53;3.90;;;31.20;60.60;;;;;;4991001;28;20212;-73
2022/08/16 10:44:37;;;;;;;6.32;3.92;;;31.20;60.30;;;;;;5000119;28;20466;-74
2022/08/16 10:47:08;;;;;;;8.10;4.00;;;31.40;59.20;;;;;;4991636;28;20208;-74
2022/08/16 10:49:39;;;;;;;9.73;4.10;;;31.40;59.40;;;;;;4996253;28;20188;-73
2022/08/16 10:52:09;;;;;;;11.43;4.43;;;31.50;59.10;;;;;;4995609;28;20283;-73
2022/08/16 10:54:46;;;;;;;9.73;3.78;;;31.60;58.80;;;;;;4999795;28;20800;-73
2022/08/16 10:57:35;;;;;;;4.78;3.70;;;31.70;58.80;;;;;;4997950;28;20212;-73
2022/08/16 11:00:08;;;;;;;6.80;3.80;;;31.70;58.00;;;;;;4995426;28;20240;-73
2022/08/16 11:02:52;;;;;;;6.13;4.03;;;31.80;57.50;;;;;;4995878;28;20732;-74
2022/08/16 11:05:29;;;;;;;7.60;3.90;;;31.80;56.60;;;;;;4996709;28;20195;-73
2022/08/16 11:08:18;;;;;;;5.20;3.58;;;31.90;57.10;;;;;;4998453;28;20201;-72
2022/08/16 11:11:05;;;;;;;5.28;3.53;;;32.00;56.90;;;;;;4998726;28;20711;-73
2022/08/16 11:13:40;;;;;;;5.97;3.95;;;32.00;56.50;;;;;;4999410;28;20250;-73
2022/08/16 11:16:27;;;;;;;7.90;3.28;;;32.10;56.90;;;;;;5000344;28;20203;-74
2022/08/16 11:19:18;;;;;;;7.68;3.72;;;32.20;57.20;;;;;;5001080;28;20208;-73
2022/08/16 11:21:46;;;;;;;10.02;3.85;;;32.20;55.80;;;;;;4987400;28;20185;-73
2022/08/16 11:24:39;;;;;;;5.93;3.70;;;32.20;55.20;;;;;;4996763;28;20200;-73
2022/08/16 11:27:15;;;;;;;5.70;3.58;;;32.30;54.70;;;;;;4999361;28;20192;-75
2022/08/16 11:29:53;;;;;;;5.03;3.10;;;32.40;54.70;;;;;;4996123;28;20192;-73
2022/08/16 11:32:24;;;;;;;5.50;3.97;;;32.50;54.70;;;;;;4997711;28;20224;-73
2022/08/16 11:35:06;;;;;;;8.73;3.75;;;32.60;54.80;;;;;;4998704;28;20227;-74
2022/08/16 11:37:44;;;;;;;9.95;3.60;;;32.60;53.30;;;;;;5002533;28;20224;-73
2022/08/16 11:40:37;;;;;;;5.38;3.85;;;32.60;54.10;;;;;;5005175;28;20207;-73
2022/08/16 11:43:08;;;;;;;6.90;3.17;;;32.70;53.10;;;;;;4996303;28;20208;-72
2022/08/16 11:45:38;;;;;;;7.05;3.72;;;32.80;53.90;;;;;;5003560;28;20575;-76
2022/08/16 11:48:12;;;;;;;7.97;3.67;;;32.80;52.90;;;;;;4991461;28;20353;-75
2022/08/16 11:50:43;;;;;;;5.03;3.45;;;32.90;52.40;;;;;;5003574;28;20210;-75
2022/08/16 11:53:13;;;;;;;5.63;3.28;;;32.90;52.60;;;;;;5003463;28;20200;-74
2022/08/16 11:55:44;;;;;;;6.25;3.35;;;33.00;52.20;;;;;;5005443;28;20263;-74
2022/08/16 11:58:18;;;;;;;6.97;3.10;;;33.00;52.50;;;;;;5000692;28;20266;-75
2022/08/16 12:00:50;;;;;;;9.70;3.83;;;33.10;52.10;;;;;;4992460;28;20203;-74
2022/08/16 12:03:21;;;;;;;4.85;3.50;;;33.10;51.50;;;;;;5000397;28;20611;-74
2022/08/16 12:06:08;;;;;;;6.15;3.35;;;33.10;51.80;;;;;;4995473;28;20284;-75
2022/08/16 12:08:40;;;;;;;4.95;3.45;;;33.20;52.10;;;;;;4997818;28;20618;-75
2022/08/16 12:11:09;;;;;;;4.63;3.25;;;33.20;50.80;;;;;;5000998;28;20193;-72
2022/08/16 12:13:40;;;;;;;4.90;3.20;;;33.30;51.10;;;;;;5001961;28;20203;-74
2022/08/16 12:16:10;;;;;;;5.45;3.72;;;33.30;51.00;;;;;;5002525;28;20207;-74
2022/08/16 12:18:45;;;;;;;8.40;3.30;;;33.40;49.60;;;;;;5005311;28;20212;-77
2022/08/16 12:21:20;;;;;;;5.93;3.08;;;33.40;49.70;;;;;;5002127;28;20188;-73
2022/08/16 12:23:49;;;;;;;7.30;3.40;;;33.40;49.40;;;;;;5002486;28;20284;-77
2022/08/16 12:26:18;;;;;;;5.78;3.50;;;33.50;49.70;;;;;;4990460;28;20196;-74
2022/08/16 12:28:47;;;;;;;6.75;3.63;;;33.50;49.70;;;;;;4994262;28;20189;-74
2022/08/16 12:31:22;;;;;;;5.65;3.47;;;33.60;49.30;;;;;;5000807;28;20342;-75
2022/08/16 12:33:51;;;;;;;6.93;3.60;;;33.60;49.70;;;;;;5013219;28;20908;-76
2022/08/16 12:36:27;;;;;;;6.75;3.72;;;33.60;49.70;;;;;;4995973;28;20197;-72
2022/08/16 12:38:57;;;;;;;8.93;3.30;;;33.60;49.10;;;;;;4992617;28;20223;-74
2022/08/16 12:41:26;;;;;;;6.93;3.63;;;33.60;49.10;;;;;;4988603;28;20192;-74
2022/08/16 12:43:55;;;;;;;5.22;3.42;;;33.70;48.90;;;;;;5005637;28;20287;-74
2022/08/16 12:46:29;;;;;;;8.27;3.85;;;33.70;48.00;;;;;;5001988;28;20205;-74
2022/08/16 12:48:59;;;;;;;6.55;3.72;;;33.70;48.60;;;;;;4997884;28;20306;-73
2022/08/16 12:51:32;;;;;;;5.03;3.50;;;33.70;48.00;;;;;;5003981;28;20192;-73
2022/08/16 12:54:20;;;;;;;7.55;4.30;;;33.70;48.00;;;;;;4997978;28;20196;-75
2022/08/16 12:56:49;;;;;;;7.00;4.00;;;33.70;47.70;;;;;;5006637;28;20204;-74
2022/08/16 12:59:20;;;;;;;6.35;3.40;;;33.80;47.50;;;;;;5002565;28;20244;-74
2022/08/16 13:01:50;;;;;;;6.70;3.78;;;33.80;47.30;;;;;;5001884;28;20212;-74
2022/08/16 13:04:26;;;;;;;6.57;4.30;;;33.90;47.60;;;;;;4999002;28;20192;-73
2022/08/16 13:07:03;;;;;;;7.78;4.13;;;33.90;47.00;;;;;;4996399;28;20224;-73
2022/08/16 13:09:46;;;;;;;7.97;4.22;;;34.00;47.50;;;;;;4993701;28;20229;-74
2022/08/16 13:12:18;;;;;;;5.85;3.92;;;33.90;46.70;;;;;;5002820;28;20207;-75
2022/08/16 13:14:48;;;;;;;6.32;4.22;;;33.80;45.90;;;;;;4995367;28;20201;-76
2022/08/16 13:17:20;;;;;;;7.22;4.20;;;33.90;46.00;;;;;;4992307;28;20262;-75
2022/08/16 13:19:50;;;;;;;8.65;5.20;;;33.90;46.00;;;;;;4995605;28;20224;-73
2022/08/16 13:22:41;;;;;;;6.45;4.22;;;33.90;45.10;;;;;;4988136;28;20198;-74
2022/08/16 13:25:12;;;;;;;6.72;4.10;;;34.00;46.10;;;;;;4997451;28;20219;-74
2022/08/16 13:27:51;;;;;;;11.38;4.30;;;33.90;45.70;;;;;;5001186;28;20687;-74
2022/08/16 13:30:42;;;;;;;6.47;4.68;;;33.90;46.00;;;;;;4987836;28;20837;-76